Terminal Aerodrome Forecast
Issued by NWS

Current Version | Previous Version | Graphics & Text | Print | Product List | Glossary On
Versions: 1 2 3 4 5 6 7 8 9 10 11 12 13 14 15 16 17 18 19 20 21 22
000
FTUS41 KRLX 291739
TAFCKB
TAF
KCKB 291739Z 2918/3018 20005KT P6SM SCT080
     FM292000 19004KT 5SM SHRA BR BKN040
     FM292200 19004KT P6SM BKN040
     FM300600 19004KT 5SM SHRA BR BKN040
     FM301000 20004KT P6SM BKN025
     FM301600 22007KT P6SM VCTS BKN025CB=

USA.gov is the U.S. government's official web portal to all federal, state and local government web resources and services.